createdAt,value
2022-09-23T00:01:22.814Z,68.55
2022-09-23T00:03:50.601Z,68.51
2022-09-23T00:06:20.865Z,68.87
2022-09-23T00:08:52.128Z,68.56
2022-09-23T00:11:24.232Z,68.62
2022-09-23T00:13:54.984Z,68.62
2022-09-23T00:16:32.817Z,68.67
2022-09-23T00:19:02.295Z,68.83
2022-09-23T00:21:30.076Z,68.71
2022-09-23T00:23:57.883Z,68.73
2022-09-23T00:26:25.816Z,68.78
2022-09-23T00:28:53.415Z,68.85
2022-09-23T00:31:24.132Z,68.80
2022-09-23T00:34:00.615Z,68.76
2022-09-23T00:36:29.764Z,69.01
2022-09-23T00:38:57.441Z,69.11
2022-09-23T00:41:26.204Z,69.00
2022-09-23T00:43:57.353Z,69.06
2022-09-23T00:46:40.136Z,69.20
2022-09-23T00:49:15.188Z,69.15
2022-09-23T00:51:52.311Z,69.08
2022-09-23T00:54:24.072Z,69.06
2022-09-23T00:56:52.114Z,69.05
2022-09-23T00:59:20.869Z,69.03
2022-09-23T01:01:50.208Z,69.23
2022-09-23T01:04:17.815Z,69.15
2022-09-23T01:06:45.494Z,69.28
2022-09-23T01:09:13.075Z,69.38
2022-09-23T01:11:48.554Z,69.13
2022-09-23T01:15:01.414Z,69.25
2022-09-23T01:17:39.998Z,69.41
2022-09-23T01:20:35.745Z,69.29
2022-09-23T01:23:03.645Z,69.47
2022-09-23T01:26:09.862Z,69.44
2022-09-23T01:29:15.316Z,69.30
2022-09-23T01:31:55.737Z,68.97
2022-09-23T01:55:27.497Z,68.79
2022-09-23T01:58:01.237Z,68.69
2022-09-23T02:00:32.338Z,68.57
2022-09-23T02:03:12.900Z,68.35
2022-09-23T02:05:51.807Z,68.36
2022-09-23T02:08:28.279Z,68.30
2022-09-23T02:11:04.779Z,68.35
2022-09-23T02:13:55.908Z,68.61
2022-09-23T02:16:39.599Z,68.61
2022-09-23T02:19:15.648Z,68.77
2022-09-23T02:21:50.093Z,68.76
2022-09-23T02:24:21.587Z,69.16
2022-09-23T02:26:53.707Z,69.05
2022-09-23T02:29:38.428Z,69.12
2022-09-23T02:32:32.209Z,69.26
2022-09-23T02:35:13.079Z,69.34
2022-09-23T02:37:57.851Z,69.52
2022-09-23T02:40:31.527Z,69.48
2022-09-23T02:43:12.493Z,69.59
2022-09-23T02:45:40.206Z,69.71
2022-09-23T02:48:20.411Z,69.78
2022-09-23T02:50:48.351Z,70.12
2022-09-23T02:53:17.381Z,70.09
2022-09-23T02:55:45.063Z,70.11
2022-09-23T02:58:14.272Z,70.14
2022-09-23T03:01:16.677Z,70.26
2022-09-23T03:03:50.500Z,70.15
2022-09-23T03:06:24.230Z,70.37
2022-09-23T03:09:01.241Z,70.55
2022-09-23T03:11:29.145Z,70.42
2022-09-23T03:14:17.660Z,70.40
2022-09-23T03:17:10.684Z,70.17
2022-09-23T03:19:44.374Z,70.14
2022-09-23T03:22:18.763Z,70.10
2022-09-23T03:24:51.838Z,70.13
2022-09-23T03:27:27.697Z,70.06
2022-09-23T03:29:56.555Z,69.99
2022-09-23T03:32:28.112Z,70.31
2022-09-23T03:34:58.757Z,70.49
2022-09-23T03:37:48.397Z,70.25
2022-09-23T03:40:21.407Z,70.16
2022-09-23T03:42:49.567Z,69.99
2022-09-23T03:45:22.057Z,70.16
2022-09-23T03:47:49.749Z,70.08
2022-09-23T03:50:17.504Z,70.04
2022-09-23T03:52:45.347Z,70.01
2022-09-23T03:55:13.011Z,69.81
2022-09-23T03:57:40.810Z,70.03
2022-09-23T04:00:09.627Z,70.09
2022-09-23T04:02:41.222Z,70.15
2022-09-23T04:05:10.606Z,70.17
2022-09-23T04:07:38.696Z,70.14
2022-09-23T04:10:07.121Z,70.05
2022-09-23T04:12:34.917Z,69.91
2022-09-23T04:15:03.244Z,70.21
2022-09-23T04:17:31.082Z,70.27
2022-09-23T04:19:59.002Z,70.01
2022-09-23T04:22:26.927Z,70.18
2022-09-23T04:24:55.050Z,70.27
2022-09-23T04:27:23.050Z,70.34
2022-09-23T04:29:51.041Z,70.42
2022-09-23T04:32:18.811Z,70.20
2022-09-23T04:34:46.682Z,70.32
2022-09-23T04:37:14.529Z,70.30
2022-09-23T04:39:43.492Z,70.39
2022-09-23T04:42:11.324Z,70.36
2022-09-23T04:44:39.912Z,70.39
2022-09-23T04:47:07.643Z,70.16
2022-09-23T04:49:38.497Z,70.24
2022-09-23T04:52:06.613Z,70.14
2022-09-23T04:54:34.474Z,70.13
2022-09-23T04:57:02.307Z,70.34
2022-09-23T04:59:30.485Z,70.32
2022-09-23T05:01:58.499Z,70.31
2022-09-23T05:04:26.266Z,70.32
2022-09-23T05:06:54.043Z,70.43
2022-09-23T05:09:21.811Z,70.70
2022-09-23T05:11:49.700Z,71.01
2022-09-23T05:14:17.522Z,71.03
2022-09-23T05:16:45.453Z,70.96
2022-09-23T05:19:13.763Z,70.67
2022-09-23T05:21:41.635Z,70.61
2022-09-23T05:24:09.971Z,70.56
2022-09-23T05:26:38.556Z,70.09
2022-09-23T05:29:06.500Z,70.04
2022-09-23T05:31:35.048Z,70.04
2022-09-23T05:34:05.071Z,70.04
2022-09-23T05:36:38.337Z,70.32
2022-09-23T05:39:08.456Z,70.26
2022-09-23T05:41:37.258Z,69.97
2022-09-23T05:44:05.310Z,69.73
2022-09-23T05:46:33.749Z,69.30
2022-09-23T05:49:03.456Z,68.87
2022-09-23T05:51:33.128Z,69.24
2022-09-23T05:54:04.410Z,68.63
2022-09-23T05:56:33.947Z,68.00
2022-09-23T05:59:06.325Z,67.09
2022-09-23T06:01:36.856Z,66.57
2022-09-23T06:04:06.865Z,66.18
2022-09-23T06:06:40.098Z,65.93
2022-09-23T06:09:11.635Z,65.82
2022-09-23T06:11:40.342Z,65.56
2022-09-23T06:14:14.967Z,65.31
2022-09-23T06:16:43.298Z,65.52
2022-09-23T06:19:11.261Z,65.64
2022-09-23T06:21:40.649Z,65.26
2022-09-23T06:24:09.462Z,65.21
2022-09-23T06:26:38.407Z,65.44
2022-09-23T06:29:14.735Z,65.05
2022-09-23T06:31:43.540Z,64.79
2022-09-23T06:34:14.409Z,64.37
2022-09-23T06:36:45.878Z,64.14
2022-09-23T06:39:15.715Z,64.41
2022-09-23T06:41:45.542Z,63.71
2022-09-23T06:44:14.463Z,63.25
2022-09-23T06:46:43.205Z,63.04
2022-09-23T06:49:12.656Z,62.91
2022-09-23T06:51:40.464Z,62.73
2022-09-23T06:54:08.614Z,62.58
2022-09-23T06:56:39.519Z,62.28
2022-09-23T06:59:11.085Z,61.67
2022-09-23T07:01:39.355Z,61.37
2022-09-23T07:04:07.999Z,61.22
2022-09-23T07:06:36.360Z,60.97
2022-09-23T07:09:06.068Z,60.74
2022-09-23T07:11:34.022Z,60.57
2022-09-23T07:14:01.912Z,60.66
2022-09-23T07:16:29.925Z,60.48
2022-09-23T07:18:57.890Z,59.70
2022-09-23T07:21:26.163Z,59.57
2022-09-23T07:23:56.621Z,59.10
2022-09-23T07:26:25.481Z,58.71
2022-09-23T07:28:57.073Z,58.25
2022-09-23T07:31:37.746Z,58.02
2022-09-23T07:34:11.814Z,57.48
2022-09-23T07:36:41.193Z,57.37
2022-09-23T07:39:11.374Z,57.40
2022-09-23T07:41:39.680Z,57.18
2022-09-23T07:44:08.973Z,56.85
2022-09-23T07:46:37.448Z,56.50
2022-09-23T07:49:06.021Z,55.84
2022-09-23T07:51:37.067Z,56.33
2022-09-23T07:54:08.131Z,55.54
2022-09-23T07:56:36.543Z,55.62
2022-09-23T07:59:11.082Z,55.12
2022-09-23T08:01:42.376Z,54.07
2022-09-23T08:04:17.926Z,53.43
2022-09-23T08:06:48.710Z,52.77
2022-09-23T08:09:18.322Z,51.81
2022-09-23T08:11:46.710Z,51.25
2022-09-23T08:14:15.369Z,51.07
2022-09-23T08:16:45.016Z,50.79
2022-09-23T08:19:13.573Z,50.87
2022-09-23T08:21:42.101Z,50.79
2022-09-23T08:24:14.756Z,50.77
2022-09-23T08:26:43.507Z,49.71
2022-09-23T08:29:17.057Z,49.40
2022-09-23T08:31:45.315Z,49.09
2022-09-23T08:34:13.523Z,48.94
2022-09-23T08:36:41.419Z,48.64
2022-09-23T08:39:14.616Z,48.29
2022-09-23T08:41:58.561Z,48.53
2022-09-23T08:44:56.465Z,48.61
2022-09-23T08:48:12.865Z,48.62
2022-09-23T08:50:59.107Z,48.73
2022-09-23T08:53:35.813Z,49.13
2022-09-23T08:56:15.187Z,48.60
2022-09-23T08:59:05.377Z,48.11
2022-09-23T09:01:39.394Z,48.51
2022-09-23T09:04:48.902Z,48.70
2022-09-23T09:07:36.154Z,48.99
2022-09-23T09:10:16.968Z,48.63
2022-09-23T09:12:52.599Z,48.82
2022-09-23T09:15:28.993Z,48.92
2022-09-23T09:18:10.425Z,48.14
2022-09-23T09:21:28.342Z,47.72
2022-09-23T09:24:00.585Z,47.15
2022-09-23T09:26:33.971Z,46.89
2022-09-23T09:29:31.257Z,46.91
2022-09-23T09:32:33.236Z,47.69
2022-09-23T09:35:20.268Z,48.21
2022-09-23T09:37:48.280Z,48.03
2022-09-23T09:40:20.878Z,46.84
2022-09-23T09:42:50.369Z,46.30
2022-09-23T09:45:30.310Z,45.47
2022-09-23T09:48:11.085Z,45.17
2022-09-23T09:50:44.733Z,45.28
2022-09-23T09:53:24.055Z,45.18
2022-09-23T09:56:07.726Z,45.02
2022-09-23T09:58:44.109Z,45.30
2022-09-23T10:01:32.214Z,43.88
2022-09-23T10:04:21.983Z,42.92
2022-09-23T10:07:06.687Z,43.76
2022-09-23T10:09:39.924Z,43.57
2022-09-23T10:12:20.039Z,43.31
2022-09-23T10:14:53.359Z,42.84
2022-09-23T10:17:24.803Z,42.72
2022-09-23T10:20:02.832Z,43.04
2022-09-23T10:22:40.685Z,42.49
2022-09-23T10:25:26.827Z,42.15
2022-09-23T10:27:54.660Z,42.09
2022-09-23T10:30:25.449Z,41.92
2022-09-23T10:32:57.714Z,42.11
2022-09-23T10:35:26.784Z,41.70
2022-09-23T10:37:56.458Z,42.33
2022-09-23T10:41:03.052Z,42.28
2022-09-23T10:44:04.439Z,42.16
2022-09-23T10:46:46.045Z,41.92
2022-09-23T10:49:43.965Z,41.22
2022-09-23T10:52:54.028Z,41.78
2022-09-23T10:55:40.031Z,42.08
2022-09-23T10:58:34.413Z,42.10
2022-09-23T11:01:06.197Z,41.75
2022-09-23T11:03:50.935Z,42.16
2022-09-23T11:06:37.588Z,42.00
2022-09-23T11:09:23.311Z,42.37
2022-09-23T11:11:55.370Z,42.61
2022-09-23T11:14:38.978Z,41.44
2022-09-23T11:17:27.989Z,41.69
2022-09-23T11:20:09.872Z,41.28
2022-09-23T11:23:15.510Z,41.26
2022-09-23T11:25:50.825Z,40.65
2022-09-23T11:28:50.908Z,40.32
2022-09-23T11:31:43.001Z,40.03
2022-09-23T11:34:28.016Z,39.59
2022-09-23T11:37:04.765Z,40.26
2022-09-23T11:39:47.623Z,39.15
2022-09-23T11:42:40.687Z,39.16
2022-09-23T11:45:17.301Z,39.10
2022-09-23T11:47:54.834Z,39.09
2022-09-23T11:50:29.804Z,38.93
2022-09-23T11:53:20.703Z,38.47
2022-09-23T11:55:58.332Z,38.44
2022-09-23T11:58:46.484Z,38.64
2022-09-23T12:01:37.367Z,39.10
2022-09-23T12:04:20.418Z,39.41
2022-09-23T12:07:01.200Z,39.31
2022-09-23T12:09:57.646Z,38.54
2022-09-23T12:12:38.452Z,38.23
2022-09-23T12:15:21.494Z,37.86
2022-09-23T12:18:27.109Z,37.87
2022-09-23T12:21:45.707Z,37.97
2022-09-23T12:24:19.287Z,37.77
2022-09-23T12:26:53.381Z,37.16
2022-09-23T12:29:23.617Z,37.48
2022-09-23T12:31:52.092Z,37.21
2022-09-23T12:34:29.292Z,37.49
2022-09-23T12:37:06.286Z,37.16
2022-09-23T12:39:37.500Z,36.84
2022-09-23T12:42:12.643Z,36.43
2022-09-23T12:44:44.387Z,36.26
2022-09-23T12:47:15.118Z,36.86
2022-09-23T12:49:48.381Z,36.77
2022-09-23T12:52:16.295Z,36.79
2022-09-23T12:54:46.954Z,36.68
2022-09-23T12:57:35.086Z,37.25
2022-09-23T13:00:12.877Z,37.47
2022-09-23T13:03:10.751Z,37.85
2022-09-23T13:06:19.517Z,38.00
2022-09-23T13:08:49.346Z,38.33
2022-09-23T13:11:26.543Z,38.34
2022-09-23T13:14:00.221Z,38.08
2022-09-23T13:16:44.001Z,38.38
2022-09-23T13:19:27.334Z,38.48
2022-09-23T13:21:55.189Z,38.73
2022-09-23T13:24:28.787Z,39.03
2022-09-23T13:27:11.647Z,39.51
2022-09-23T13:29:45.101Z,39.67
2022-09-23T13:32:15.248Z,39.46
2022-09-23T13:34:46.920Z,39.72
2022-09-23T13:37:40.712Z,39.63
2022-09-23T13:40:19.641Z,39.24
2022-09-23T13:43:01.279Z,39.31
2022-09-23T13:45:32.355Z,39.26
2022-09-23T13:48:06.343Z,39.08
2022-09-23T13:50:38.719Z,38.81
2022-09-23T13:53:10.839Z,39.12
2022-09-23T13:55:39.883Z,39.49
2022-09-23T13:58:24.210Z,39.17
2022-09-23T14:00:52.427Z,39.60
2022-09-23T14:03:37.811Z,39.71
2022-09-23T14:06:10.290Z,39.90
2022-09-23T14:08:45.717Z,40.10
2022-09-23T14:11:20.868Z,40.19
2022-09-23T14:13:58.067Z,40.19
2022-09-23T14:16:28.301Z,39.92
2022-09-23T14:19:00.819Z,39.50
2022-09-23T14:21:28.822Z,39.96
2022-09-23T14:23:56.844Z,40.31
2022-09-23T14:26:25.451Z,40.26
2022-09-23T14:28:54.161Z,40.63
2022-09-23T14:31:25.326Z,40.67
2022-09-23T14:33:53.280Z,40.83
2022-09-23T14:36:40.546Z,41.32
2022-09-23T14:39:11.493Z,41.47
2022-09-23T14:41:53.237Z,41.47
2022-09-23T14:44:49.831Z,41.71
2022-09-23T14:47:26.523Z,41.83
2022-09-23T14:50:19.229Z,41.82
2022-09-23T14:52:53.391Z,42.27
2022-09-23T14:55:21.997Z,42.51
2022-09-23T14:58:02.725Z,42.27
2022-09-23T15:00:31.679Z,42.62
2022-09-23T15:03:12.974Z,42.63
2022-09-23T15:05:47.925Z,42.94
2022-09-23T15:08:22.231Z,42.86
2022-09-23T15:10:50.699Z,42.65
2022-09-23T15:13:43.285Z,42.60
2022-09-23T15:16:14.578Z,42.71
2022-09-23T15:18:46.476Z,42.62
2022-09-23T15:21:17.888Z,43.05
2022-09-23T15:23:49.756Z,43.01
2022-09-23T15:26:20.284Z,43.05
2022-09-23T15:28:50.142Z,42.73
2022-09-23T15:31:26.715Z,42.40
2022-09-23T15:33:56.148Z,42.51
2022-09-23T15:36:26.479Z,42.74
2022-09-23T15:38:58.532Z,42.42
2022-09-23T15:41:26.440Z,42.54
2022-09-23T15:43:56.601Z,42.79
2022-09-23T15:46:28.328Z,43.10
2022-09-23T15:49:05.374Z,43.29
2022-09-23T15:51:33.407Z,43.43
2022-09-23T15:54:01.323Z,43.72
2022-09-23T15:56:29.228Z,43.45
2022-09-23T15:58:57.013Z,43.61
2022-09-23T16:01:30.804Z,44.26
2022-09-23T16:04:01.284Z,44.36
2022-09-23T16:06:29.045Z,44.63
2022-09-23T16:08:57.902Z,44.89
2022-09-23T16:11:32.020Z,45.37
2022-09-23T16:14:00.931Z,45.65
2022-09-23T16:16:28.809Z,45.76
2022-09-23T16:18:56.991Z,46.33
2022-09-23T16:21:26.891Z,46.01
2022-09-23T16:23:56.812Z,46.17
2022-09-23T16:26:27.880Z,46.37
2022-09-23T16:28:57.414Z,46.70
2022-09-23T16:31:27.875Z,46.98
2022-09-23T16:34:02.684Z,47.08
2022-09-23T16:36:39.809Z,47.42
2022-09-23T16:39:15.794Z,47.66
2022-09-23T16:41:48.360Z,48.30
2022-09-23T16:44:18.314Z,48.34
2022-09-23T16:46:46.268Z,48.49
2022-09-23T16:49:14.310Z,48.72
2022-09-23T16:51:43.747Z,49.03
2022-09-23T16:54:13.355Z,49.38
2022-09-23T16:56:46.614Z,49.68
2022-09-23T16:59:15.195Z,49.74
2022-09-23T17:02:02.830Z,49.94
2022-09-23T17:04:32.903Z,50.11
2022-09-23T17:07:03.794Z,50.18
2022-09-23T17:09:32.179Z,50.29
2022-09-23T17:12:27.994Z,50.70
2022-09-23T17:14:55.825Z,50.81
2022-09-23T17:17:23.844Z,50.94
2022-09-23T17:19:52.017Z,51.07
2022-09-23T17:22:23.011Z,50.85
2022-09-23T17:24:51.067Z,50.76
2022-09-23T17:27:19.067Z,51.04
2022-09-23T17:29:46.828Z,50.95
2022-09-23T17:32:14.574Z,50.76
2022-09-23T17:34:44.163Z,50.80
2022-09-23T17:37:11.944Z,50.98
2022-09-23T17:39:42.615Z,51.20
2022-09-23T17:42:15.548Z,51.15
2022-09-23T17:44:43.374Z,51.23
2022-09-23T17:47:11.129Z,51.34
2022-09-23T17:49:39.548Z,51.12
2022-09-23T17:52:09.007Z,51.22
2022-09-23T17:54:36.712Z,50.99
2022-09-23T17:57:04.522Z,51.02
2022-09-23T17:59:32.384Z,51.04
2022-09-23T18:02:00.470Z,50.83
2022-09-23T18:04:28.562Z,51.10
2022-09-23T18:06:56.333Z,51.16
2022-09-23T18:09:24.358Z,51.26
2022-09-23T18:11:52.513Z,51.19
2022-09-23T18:14:22.973Z,51.04
2022-09-23T18:16:54.035Z,51.50
2022-09-23T18:19:22.771Z,51.59
2022-09-23T18:22:10.513Z,51.94
2022-09-23T18:24:42.436Z,52.26
2022-09-23T18:27:10.206Z,52.64
2022-09-23T18:29:39.805Z,52.63
2022-09-23T18:32:14.243Z,52.84
2022-09-23T18:34:42.358Z,53.01
2022-09-23T18:37:16.100Z,52.97
2022-09-23T18:39:45.957Z,52.97
2022-09-23T18:42:14.594Z,53.07
2022-09-23T18:44:42.524Z,53.10
2022-09-23T18:47:30.207Z,53.22
2022-09-23T18:50:24.440Z,53.40
2022-09-23T18:52:52.196Z,53.38
2022-09-23T18:55:19.902Z,53.83
2022-09-23T18:57:47.967Z,53.51
2022-09-23T19:00:15.840Z,53.63
2022-09-23T19:02:44.576Z,53.65
2022-09-23T19:05:12.476Z,53.80
2022-09-23T19:07:40.284Z,53.89
2022-09-23T19:10:08.870Z,53.86
2022-09-23T19:12:36.884Z,53.92
2022-09-23T19:15:05.127Z,54.09
2022-09-23T19:17:32.923Z,54.23
2022-09-23T19:20:00.863Z,54.23
2022-09-23T19:22:30.636Z,54.35
2022-09-23T19:24:59.966Z,54.17
2022-09-23T19:27:27.651Z,54.45
2022-09-23T19:29:55.567Z,54.49
2022-09-23T19:32:27.224Z,54.62
2022-09-23T19:34:55.050Z,54.71
2022-09-23T19:37:23.244Z,55.00
2022-09-23T19:39:51.102Z,54.87
2022-09-23T19:42:18.941Z,55.20
2022-09-23T19:44:46.695Z,55.65
2022-09-23T19:47:17.851Z,56.00
2022-09-23T19:49:45.660Z,55.63
2022-09-23T19:52:38.797Z,55.79
2022-09-23T19:55:07.219Z,55.86
2022-09-23T19:57:34.958Z,56.08
2022-09-23T20:00:02.810Z,56.14
2022-09-23T20:02:40.014Z,55.99
2022-09-23T20:05:11.888Z,56.07
2022-09-23T20:07:41.655Z,56.18
2022-09-23T20:10:11.084Z,56.24
2022-09-23T20:12:41.604Z,56.28
2022-09-23T20:15:11.093Z,56.34
2022-09-23T20:17:41.019Z,56.28
2022-09-23T20:20:10.839Z,56.29
2022-09-23T20:22:39.271Z,56.38
2022-09-23T20:25:13.076Z,56.42
2022-09-23T20:27:41.073Z,56.40
2022-09-23T20:30:11.806Z,56.38
2022-09-23T20:32:44.670Z,56.50
2022-09-23T20:35:13.864Z,56.56
2022-09-23T20:37:41.638Z,56.61
2022-09-23T20:40:10.430Z,56.72
2022-09-23T20:42:38.646Z,56.73
2022-09-23T20:45:08.542Z,57.05
2022-09-23T20:47:36.309Z,56.85
2022-09-23T20:50:04.342Z,56.85
2022-09-23T20:52:33.216Z,57.03
2022-09-23T20:55:02.596Z,57.00
2022-09-23T20:57:31.590Z,57.46
2022-09-23T21:00:24.712Z,57.56
2022-09-23T21:02:55.858Z,57.73
2022-09-23T21:05:24.769Z,57.81
2022-09-23T21:07:52.463Z,57.77
2022-09-23T21:10:22.844Z,57.87
2022-09-23T21:12:51.776Z,57.95
2022-09-23T21:15:19.544Z,58.14
2022-09-23T21:17:47.266Z,58.29
2022-09-23T21:20:15.898Z,58.57
2022-09-23T21:22:49.307Z,58.67
2022-09-23T21:25:27.444Z,58.76
2022-09-23T21:27:58.553Z,58.99
2022-09-23T21:30:31.197Z,59.17
2022-09-23T21:33:00.173Z,59.45
2022-09-23T21:35:28.225Z,59.66
2022-09-23T21:37:55.985Z,59.54
2022-09-23T21:40:42.026Z,59.64
2022-09-23T21:43:09.987Z,59.60
2022-09-23T21:45:37.774Z,59.65
2022-09-23T21:48:05.657Z,59.58
2022-09-23T21:50:35.875Z,59.47
2022-09-23T21:53:03.816Z,59.48
2022-09-23T21:55:31.486Z,59.81
2022-09-23T21:57:59.306Z,59.97
2022-09-23T22:00:27.050Z,59.82
2022-09-23T22:02:55.022Z,59.61
2022-09-23T22:05:23.352Z,59.70
2022-09-23T22:07:51.538Z,59.74
2022-09-23T22:10:19.206Z,59.69
2022-09-23T22:12:49.846Z,59.77
2022-09-23T22:15:19.835Z,59.68
2022-09-23T22:17:48.654Z,59.64
2022-09-23T22:20:17.185Z,59.83
2022-09-23T22:22:45.406Z,59.99
2022-09-23T22:25:13.287Z,60.07
2022-09-23T22:28:01.066Z,60.08
2022-09-23T22:31:01.484Z,59.87
2022-09-23T22:33:29.292Z,59.91
2022-09-23T22:36:03.942Z,60.00
2022-09-23T22:38:32.859Z,60.35
2022-09-23T22:41:00.638Z,60.35
2022-09-23T22:43:28.633Z,60.33
2022-09-23T22:45:56.463Z,60.34
2022-09-23T22:48:24.446Z,60.43
2022-09-23T22:50:52.290Z,60.53
2022-09-23T22:53:20.407Z,60.42
2022-09-23T22:56:00.306Z,60.49
2022-09-23T22:58:32.470Z,60.35
2022-09-23T23:01:02.707Z,60.48
2022-09-23T23:03:33.219Z,60.66
2022-09-23T23:06:02.479Z,60.69
2022-09-23T23:08:31.117Z,60.93
2022-09-23T23:11:05.672Z,60.88
2022-09-23T23:13:34.444Z,60.82
2022-09-23T23:16:11.893Z,61.09
2022-09-23T23:18:41.825Z,61.25
2022-09-23T23:21:15.280Z,61.50
2022-09-23T23:23:45.717Z,61.69
2022-09-23T23:26:22.603Z,62.15
2022-09-23T23:28:51.923Z,62.29
2022-09-23T23:31:22.055Z,62.31
2022-09-23T23:34:16.770Z,62.39
2022-09-23T23:37:15.833Z,62.46
2022-09-23T23:39:49.518Z,62.55
2022-09-23T23:42:17.843Z,62.60
2022-09-23T23:44:49.123Z,62.73
2022-09-23T23:47:17.056Z,63.04
2022-09-23T23:49:44.942Z,63.14
2022-09-23T23:52:12.787Z,63.11
2022-09-23T23:54:40.759Z,63.32
2022-09-23T23:57:11.891Z,63.45
2022-09-23T23:59:39.791Z,63.57
